Angleton, TX

4:47 AM CST on January 29, 2015 (GMT -0600)
Nelson's Weather Station | Change Station
CLOSE
Current Station
Personal Weather Station
Location: Angleton, TX
Elevation: 36 ft
Nearby Weather Stations
Active Advisory: Dense Fog Advisory

Elev 36 ft 29.19 °N, 95.42 °W | Updated 47 seconds ago

Fog
Fog
50.1 °F
Feels Like 50.1 °F
N
0.0
Wind Variable Wind from North
Gusts 0.0 mph

Today
High -- | Low -- °F
--% Chance of Precip.
Yesterday
High -- | Low -- °F
Precip. -- in
7:12 AM 5:57 PM
Waxing Gibbous, 73% visible
Pressure 30.16 in
Visibility 0.2 miles
Clouds
Dew Point 50 °F
Humidity 99%
Rainfall 0.00 in
Snow Depth Not available.
UV Not available.
Pollen 7.10 out of 12
Air Quality Not available.
Flu Activity Not available.
SPECI KLBX 291007Z AUTO 00000KT 1/4SM FG VV001 11/11 A3016 RMK AO2 T01060106 $

More Conditions Fewer Conditions

Pressure 30.16 in
Visibility 0.2 miles
Clouds
Dew Point 50 °F
Humidity 99%
Rainfall 0.00 in
Snow Depth Not available.
UV Not available.
Pollen 7.10 out of 12
Air Quality Not available.
Flu Activity Not available.
SPECI KLBX 291007Z AUTO 00000KT 1/4SM FG VV001 11/11 A3016 RMK AO2 T01060106 $

More Conditions Fewer Conditions

10-Day Weather Forecast

Almanac

Astronomy

Jan. 29, 2015 Rise Set
Actual Time
Civil Twilight
Nautical Twilight
Astronomical Twilight
Moon
Length of Visible Light
Length of Day
Tomorrow will be .
, % of the Moon is Illuminated

Today's Extremes

State Highs State Lows

Community

WunderPhotos

Upload Photos

1,791,389 photos uploaded!

WunderBlogs® & News

Nearby

Air Quality

  Air Quality AQ Index Pollutant
Not available.

Snow Depth

Station Depth Elevation

Earthquake Activity

City Distance Mag. Time & Date
Minimum magnitude displayed is 2.5.

Coastal Water Temperatures

Place Temperature

Nearby Weather Stations